createdAt,value
2022-12-24T00:00:06.370Z,24
2022-12-24T00:01:06.351Z,20
2022-12-24T00:02:06.344Z,20
2022-12-24T00:03:06.326Z,20
2022-12-24T00:04:06.334Z,20
2022-12-24T00:05:06.304Z,20
2022-12-24T00:06:06.340Z,20
2022-12-24T00:07:06.352Z,20
2022-12-24T00:08:06.298Z,20
2022-12-24T00:09:06.264Z,20
2022-12-24T00:10:06.250Z,20
2022-12-24T00:11:06.245Z,20
2022-12-24T00:12:06.249Z,20
2022-12-24T00:13:06.228Z,20
2022-12-24T00:14:06.216Z,20
2022-12-24T00:15:06.203Z,20
2022-12-24T00:16:06.187Z,20
2022-12-24T00:17:06.174Z,20
2022-12-24T00:18:06.173Z,20
2022-12-24T00:19:06.159Z,20
2022-12-24T00:20:06.184Z,20
2022-12-24T00:21:06.168Z,20
2022-12-24T00:22:06.137Z,20
2022-12-24T00:23:06.128Z,20
2022-12-24T00:24:06.100Z,20
2022-12-24T00:25:06.099Z,20
2022-12-24T00:26:06.192Z,20
2022-12-24T00:27:06.081Z,20
2022-12-24T00:28:06.083Z,20
2022-12-24T00:29:06.058Z,20
2022-12-24T00:30:06.042Z,20
2022-12-24T00:31:06.031Z,20
2022-12-24T00:32:06.031Z,20
2022-12-24T00:33:06.040Z,20
2022-12-24T00:34:05.998Z,20
2022-12-24T00:35:06.055Z,20
2022-12-24T00:36:06.001Z,20
2022-12-24T00:37:06.040Z,20
2022-12-24T00:38:06.026Z,20
2022-12-24T00:39:05.945Z,20
2022-12-24T00:40:05.933Z,20
2022-12-24T00:41:05.938Z,20
2022-12-24T00:42:05.920Z,20
2022-12-24T00:43:05.899Z,20
2022-12-24T00:44:05.896Z,20
2022-12-24T00:45:05.898Z,20
2022-12-24T00:46:05.903Z,20
2022-12-24T00:47:05.887Z,20
2022-12-24T00:48:05.885Z,20
2022-12-24T00:49:05.852Z,20
2022-12-24T00:50:05.853Z,20
2022-12-24T00:51:05.830Z,20
2022-12-24T00:52:05.815Z,20
2022-12-24T00:53:05.808Z,20
2022-12-24T00:54:05.788Z,20
2022-12-24T00:55:05.918Z,20
2022-12-24T00:56:06.769Z,20
2022-12-24T00:57:05.750Z,20
2022-12-24T00:58:05.826Z,20
2022-12-24T00:59:06.739Z,20
2022-12-24T01:00:05.736Z,20
2022-12-24T01:01:05.721Z,20
2022-12-24T01:02:05.710Z,20
2022-12-24T01:03:05.719Z,20
2022-12-24T01:04:05.678Z,20
2022-12-24T01:05:05.699Z,20
2022-12-24T01:06:05.704Z,20
2022-12-24T01:07:06.645Z,20
2022-12-24T01:08:05.687Z,20
2022-12-24T01:09:05.671Z,20
2022-12-24T01:10:05.631Z,20
2022-12-24T01:11:05.641Z,20
2022-12-24T01:12:05.617Z,20
2022-12-24T01:13:05.603Z,20
2022-12-24T01:14:05.592Z,20
2022-12-24T01:15:05.622Z,20
2022-12-24T01:16:05.568Z,20
2022-12-24T01:17:05.557Z,20
2022-12-24T01:18:05.559Z,20
2022-12-24T01:19:05.579Z,20
2022-12-24T01:20:06.547Z,20
2022-12-24T01:21:06.515Z,20
2022-12-24T01:22:05.498Z,20
2022-12-24T01:23:05.490Z,20
2022-12-24T01:24:05.488Z,20
2022-12-24T01:25:05.476Z,20
2022-12-24T01:26:05.481Z,20
2022-12-24T01:27:05.456Z,20
2022-12-24T01:28:05.426Z,20
2022-12-24T01:29:05.423Z,20
2022-12-24T01:30:05.407Z,20
2022-12-24T01:31:05.391Z,20
2022-12-24T01:32:05.404Z,20
2022-12-24T01:33:05.382Z,20
2022-12-24T01:34:05.365Z,20
2022-12-24T01:35:05.369Z,20
2022-12-24T01:36:05.397Z,20
2022-12-24T01:37:05.342Z,20
2022-12-24T01:38:05.329Z,20
2022-12-24T01:39:05.327Z,20
2022-12-24T01:40:05.325Z,20
2022-12-24T01:41:05.299Z,20
2022-12-24T01:42:05.282Z,20
2022-12-24T01:43:05.263Z,20
2022-12-24T01:44:05.256Z,20
2022-12-24T01:45:05.247Z,20
2022-12-24T01:46:05.247Z,20
2022-12-24T01:47:05.233Z,20
2022-12-24T01:48:05.212Z,20
2022-12-24T01:49:05.210Z,20
2022-12-24T01:50:05.213Z,20
2022-12-24T01:51:05.201Z,20
2022-12-24T01:52:05.193Z,20
2022-12-24T01:53:05.223Z,20
2022-12-24T01:54:05.196Z,20
2022-12-24T01:55:05.199Z,20
2022-12-24T01:56:05.140Z,20
2022-12-24T01:57:05.144Z,20
2022-12-24T01:58:05.114Z,20
2022-12-24T01:59:05.129Z,20
2022-12-24T02:00:05.092Z,20
2022-12-24T02:01:05.075Z,20
2022-12-24T02:02:05.081Z,20
2022-12-24T02:03:05.077Z,20
2022-12-24T02:04:05.045Z,20
2022-12-24T02:05:05.186Z,20
2022-12-24T02:06:05.024Z,20
2022-12-24T02:07:05.054Z,20
2022-12-24T02:08:05.063Z,20
2022-12-24T02:09:05.015Z,20
2022-12-24T02:10:04.983Z,20
2022-12-24T02:11:04.968Z,20
2022-12-24T02:12:04.960Z,20
2022-12-24T02:13:04.949Z,20
2022-12-24T02:14:04.938Z,20
2022-12-24T02:15:04.925Z,20
2022-12-24T02:16:04.920Z,20
2022-12-24T02:17:04.923Z,20
2022-12-24T02:18:04.895Z,20
2022-12-24T02:19:04.885Z,20
2022-12-24T02:20:04.897Z,20
2022-12-24T02:21:04.868Z,20
2022-12-24T02:22:04.855Z,20
2022-12-24T02:23:04.837Z,20
2022-12-24T02:24:04.973Z,20
2022-12-24T02:25:04.817Z,20
2022-12-24T02:26:04.808Z,20
2022-12-24T02:27:04.822Z,20
2022-12-24T02:28:04.794Z,16
2022-12-24T02:29:04.775Z,20
2022-12-24T02:30:04.772Z,16
2022-12-24T02:31:04.760Z,16
2022-12-24T02:32:04.743Z,16
2022-12-24T02:33:04.733Z,16
2022-12-24T02:34:04.722Z,16
2022-12-24T02:35:04.710Z,16
2022-12-24T02:36:04.702Z,16
2022-12-24T02:37:04.691Z,16
2022-12-24T02:38:04.709Z,16
2022-12-24T02:39:04.668Z,16
2022-12-24T02:40:04.652Z,16
2022-12-24T02:41:04.644Z,16
2022-12-24T02:42:04.710Z,20
2022-12-24T02:43:04.632Z,20
2022-12-24T02:44:04.643Z,20
2022-12-24T02:45:04.630Z,20
2022-12-24T02:46:04.594Z,20
2022-12-24T02:47:04.585Z,20
2022-12-24T02:48:04.592Z,20
2022-12-24T02:49:04.561Z,20
2022-12-24T02:50:04.546Z,20
2022-12-24T02:51:04.540Z,20
2022-12-24T02:52:04.533Z,20
2022-12-24T02:53:04.517Z,20
2022-12-24T02:54:04.501Z,20
2022-12-24T02:55:04.491Z,20
2022-12-24T02:56:04.481Z,20
2022-12-24T02:57:04.468Z,20
2022-12-24T02:58:04.473Z,16
2022-12-24T02:59:04.454Z,16
2022-12-24T03:00:04.450Z,20
2022-12-24T03:01:04.427Z,16
2022-12-24T03:02:04.422Z,20
2022-12-24T03:03:04.426Z,20
2022-12-24T03:04:04.400Z,20
2022-12-24T03:05:04.386Z,20
2022-12-24T03:06:04.386Z,20
2022-12-24T03:07:04.370Z,20
2022-12-24T03:08:04.363Z,20
2022-12-24T03:09:04.351Z,20
2022-12-24T03:10:04.330Z,20
2022-12-24T03:11:04.324Z,20
2022-12-24T03:12:04.318Z,20
2022-12-24T03:13:04.303Z,20
2022-12-24T03:14:04.292Z,20
2022-12-24T03:15:04.278Z,20
2022-12-24T03:16:04.276Z,20
2022-12-24T03:17:04.262Z,20
2022-12-24T03:18:04.252Z,20
2022-12-24T03:19:04.235Z,20
2022-12-24T03:20:04.226Z,20
2022-12-24T03:21:04.231Z,20
2022-12-24T03:22:04.205Z,20
2022-12-24T03:23:04.195Z,20
2022-12-24T03:24:04.184Z,20
2022-12-24T03:25:04.174Z,20
2022-12-24T03:26:04.172Z,20
2022-12-24T03:27:04.157Z,20
2022-12-24T03:28:04.160Z,20
2022-12-24T03:29:04.130Z,20
2022-12-24T03:30:04.118Z,20
2022-12-24T03:31:04.106Z,16
2022-12-24T03:32:04.097Z,16
2022-12-24T03:33:04.086Z,16
2022-12-24T03:34:04.140Z,16
2022-12-24T03:35:04.076Z,16
2022-12-24T03:36:04.116Z,16
2022-12-24T03:37:04.044Z,20
2022-12-24T03:38:04.032Z,16
2022-12-24T03:39:04.019Z,16
2022-12-24T03:40:04.020Z,16
2022-12-24T03:41:04.005Z,16
2022-12-24T03:42:03.989Z,16
2022-12-24T03:43:03.999Z,16
2022-12-24T03:44:03.967Z,16
2022-12-24T03:45:03.979Z,16
2022-12-24T03:46:03.959Z,16
2022-12-24T03:47:03.938Z,16
2022-12-24T03:48:04.013Z,16
2022-12-24T03:49:03.920Z,16
2022-12-24T03:50:03.910Z,16
2022-12-24T03:51:03.900Z,16
2022-12-24T03:52:03.890Z,16
2022-12-24T03:53:03.880Z,16
2022-12-24T03:54:03.879Z,16
2022-12-24T03:55:03.853Z,16
2022-12-24T03:56:03.840Z,16
2022-12-24T03:57:03.834Z,16
2022-12-24T03:58:03.829Z,16
2022-12-24T03:59:03.810Z,16
2022-12-24T04:00:03.807Z,16
2022-12-24T04:01:03.786Z,28
2022-12-24T04:02:03.789Z,28
2022-12-24T04:03:03.784Z,28
2022-12-24T04:04:03.755Z,28
2022-12-24T04:05:03.746Z,28
2022-12-24T04:06:03.732Z,28
2022-12-24T04:07:03.732Z,28
2022-12-24T04:08:03.715Z,28
2022-12-24T04:09:03.704Z,28
2022-12-24T04:10:03.710Z,28
2022-12-24T04:11:03.676Z,28
2022-12-24T04:12:03.667Z,24
2022-12-24T04:13:03.657Z,28
2022-12-24T04:14:03.649Z,28
2022-12-24T04:15:03.650Z,24
2022-12-24T04:16:03.629Z,28
2022-12-24T04:17:03.626Z,24
2022-12-24T04:18:03.606Z,28
2022-12-24T04:19:03.601Z,28
2022-12-24T04:20:03.590Z,28
2022-12-24T04:21:03.575Z,28
2022-12-24T04:22:03.564Z,28
2022-12-24T04:23:03.557Z,28
2022-12-24T04:24:03.544Z,28
2022-12-24T04:25:03.532Z,24
2022-12-24T04:26:03.518Z,24
2022-12-24T04:27:03.505Z,24
2022-12-24T04:28:03.505Z,24
2022-12-24T04:29:03.495Z,24
2022-12-24T04:30:03.486Z,24
2022-12-24T04:31:03.466Z,24
2022-12-24T04:32:03.459Z,24
2022-12-24T04:33:03.442Z,24
2022-12-24T04:34:03.428Z,24
2022-12-24T04:35:03.423Z,24
2022-12-24T04:36:03.423Z,24
2022-12-24T04:37:03.400Z,24
2022-12-24T04:38:03.406Z,24
2022-12-24T04:39:03.380Z,24
2022-12-24T04:40:03.367Z,24
2022-12-24T04:41:03.362Z,24
2022-12-24T04:42:03.349Z,24
2022-12-24T04:43:03.337Z,24
2022-12-24T04:44:03.337Z,24
2022-12-24T04:45:03.331Z,24
2022-12-24T04:46:03.325Z,24
2022-12-24T04:47:03.296Z,24
2022-12-24T04:48:03.309Z,24
2022-12-24T04:49:03.276Z,24
2022-12-24T04:50:03.261Z,24
2022-12-24T04:51:03.250Z,24
2022-12-24T04:52:03.241Z,24
2022-12-24T04:53:03.268Z,24
2022-12-24T04:54:03.218Z,24
2022-12-24T04:55:03.211Z,24
2022-12-24T04:56:03.219Z,24
2022-12-24T04:57:03.183Z,24
2022-12-24T04:58:03.180Z,24
2022-12-24T04:59:03.160Z,24
2022-12-24T05:00:03.159Z,24
2022-12-24T05:01:03.147Z,24
2022-12-24T05:02:03.130Z,24
2022-12-24T05:03:03.139Z,24
2022-12-24T05:04:03.118Z,24
2022-12-24T05:05:03.102Z,24
2022-12-24T05:06:10.675Z,24
2022-12-24T05:07:03.071Z,24
2022-12-24T05:08:03.065Z,24
2022-12-24T05:09:03.064Z,24
2022-12-24T05:10:03.047Z,24
2022-12-24T05:11:03.028Z,24
2022-12-24T05:12:03.033Z,24
2022-12-24T05:13:03.020Z,24
2022-12-24T05:14:03.014Z,24
2022-12-24T05:15:02.994Z,24
2022-12-24T05:16:02.978Z,24
2022-12-24T05:17:03.011Z,24
2022-12-24T05:18:02.956Z,24
2022-12-24T05:19:02.950Z,24
2022-12-24T05:20:02.955Z,24
2022-12-24T05:21:02.973Z,24
2022-12-24T05:22:02.910Z,24
2022-12-24T05:23:02.906Z,24
2022-12-24T05:24:02.893Z,24
2022-12-24T05:25:02.876Z,24
2022-12-24T05:26:02.866Z,24
2022-12-24T05:27:02.869Z,24
2022-12-24T05:28:02.864Z,24
2022-12-24T05:29:02.834Z,24
2022-12-24T05:30:02.835Z,24
2022-12-24T05:31:02.817Z,24
2022-12-24T05:32:02.809Z,24
2022-12-24T05:33:02.793Z,24
2022-12-24T05:34:02.785Z,24
2022-12-24T05:35:02.781Z,24
2022-12-24T05:36:02.772Z,24
2022-12-24T05:37:02.748Z,24
2022-12-24T05:38:02.743Z,24
2022-12-24T05:39:02.729Z,24
2022-12-24T05:40:02.717Z,24
2022-12-24T05:41:02.911Z,24
2022-12-24T05:42:02.699Z,24
2022-12-24T05:43:02.690Z,24
2022-12-24T05:44:02.678Z,24
2022-12-24T05:45:02.662Z,24
2022-12-24T05:46:02.662Z,24
2022-12-24T05:47:02.645Z,24
2022-12-24T05:48:02.646Z,24
2022-12-24T05:49:02.631Z,24
2022-12-24T05:50:02.620Z,24
2022-12-24T05:51:02.667Z,24
2022-12-24T05:52:02.595Z,24
2022-12-24T05:53:02.584Z,24
2022-12-24T05:54:02.569Z,24
2022-12-24T05:55:02.558Z,28
2022-12-24T05:56:02.545Z,24
2022-12-24T05:57:02.540Z,24
2022-12-24T05:58:02.526Z,24
2022-12-24T05:59:02.513Z,24
2022-12-24T06:00:02.502Z,24
2022-12-24T06:01:02.511Z,24
2022-12-24T06:02:02.483Z,24
2022-12-24T06:03:02.478Z,24
2022-12-24T06:04:02.460Z,24
2022-12-24T06:05:02.454Z,24
2022-12-24T06:06:02.450Z,24
2022-12-24T06:07:02.430Z,24
2022-12-24T06:08:02.423Z,24
2022-12-24T06:09:02.410Z,24
2022-12-24T06:10:02.400Z,24
2022-12-24T06:11:02.390Z,24
2022-12-24T06:12:02.379Z,24
2022-12-24T06:13:02.366Z,24
2022-12-24T06:14:02.541Z,24
2022-12-24T06:15:02.351Z,24
2022-12-24T06:16:02.334Z,24
2022-12-24T06:17:02.319Z,24
2022-12-24T06:18:02.314Z,28
2022-12-24T06:19:02.303Z,28
2022-12-24T06:20:02.297Z,24
2022-12-24T06:21:02.285Z,28
2022-12-24T06:22:02.271Z,24
2022-12-24T06:23:02.263Z,24
2022-12-24T06:24:02.257Z,28
2022-12-24T06:25:02.239Z,24
2022-12-24T06:26:02.225Z,24
2022-12-24T06:27:02.213Z,24
2022-12-24T06:28:02.207Z,24
2022-12-24T06:29:02.192Z,24
2022-12-24T06:30:02.198Z,24
2022-12-24T06:31:02.172Z,24
2022-12-24T06:32:02.190Z,24
2022-12-24T06:33:02.150Z,28
2022-12-24T06:34:02.138Z,24
2022-12-24T06:35:02.129Z,24
2022-12-24T06:36:02.118Z,24
2022-12-24T06:37:02.118Z,24
2022-12-24T06:38:02.103Z,24
2022-12-24T06:39:02.105Z,24
2022-12-24T06:40:02.082Z,28
2022-12-24T06:41:02.067Z,24
2022-12-24T06:42:02.057Z,28
2022-12-24T06:43:02.042Z,24
2022-12-24T06:44:02.056Z,28
2022-12-24T06:45:02.028Z,28
2022-12-24T06:46:02.022Z,28
2022-12-24T06:47:01.999Z,28
2022-12-24T06:48:01.989Z,28
2022-12-24T06:49:01.982Z,24
2022-12-24T06:50:01.977Z,24
2022-12-24T06:51:01.959Z,24
2022-12-24T06:52:01.957Z,24
2022-12-24T06:53:01.940Z,24
2022-12-24T06:54:01.936Z,24
2022-12-24T06:55:01.919Z,24
2022-12-24T06:56:01.909Z,24
2022-12-24T06:57:01.897Z,24
2022-12-24T06:58:01.893Z,24
2022-12-24T06:59:01.879Z,28
2022-12-24T07:00:01.880Z,28
2022-12-24T07:01:01.850Z,28
2022-12-24T07:02:01.857Z,28
2022-12-24T07:03:01.846Z,28
2022-12-24T07:04:01.831Z,28
2022-12-24T07:05:01.826Z,28
2022-12-24T07:06:01.799Z,32
2022-12-24T07:07:01.794Z,28
2022-12-24T07:08:01.793Z,36
2022-12-24T07:09:01.783Z,36
2022-12-24T07:10:01.812Z,28
2022-12-24T07:11:01.771Z,28
2022-12-24T07:12:01.791Z,32
2022-12-24T07:13:01.723Z,32
2022-12-24T07:14:01.714Z,32
2022-12-24T07:15:01.698Z,32
2022-12-24T07:16:01.690Z,44
2022-12-24T07:17:01.683Z,44
2022-12-24T07:18:01.670Z,52
2022-12-24T07:19:01.663Z,52
2022-12-24T07:20:01.648Z,56
2022-12-24T07:21:01.638Z,64
2022-12-24T07:22:01.629Z,64
2022-12-24T07:23:01.615Z,60
2022-12-24T07:24:01.608Z,60
2022-12-24T07:25:01.610Z,64
2022-12-24T07:26:01.617Z,80
2022-12-24T07:27:01.574Z,88
2022-12-24T07:28:01.599Z,96
2022-12-24T07:29:01.558Z,88
2022-12-24T07:30:01.541Z,80
2022-12-24T07:31:01.533Z,60
2022-12-24T07:32:01.522Z,56
2022-12-24T07:33:01.513Z,64
2022-12-24T07:34:01.508Z,64
2022-12-24T07:35:01.490Z,68
2022-12-24T07:36:01.482Z,68
2022-12-24T07:37:01.472Z,68
2022-12-24T07:38:01.462Z,64
2022-12-24T07:39:01.449Z,64
2022-12-24T07:40:01.434Z,76
2022-12-24T07:41:01.430Z,84
2022-12-24T07:42:01.416Z,88
2022-12-24T07:43:01.496Z,80
2022-12-24T07:44:01.397Z,72
2022-12-24T07:45:01.383Z,72
2022-12-24T07:46:01.372Z,64
2022-12-24T07:47:01.364Z,64
2022-12-24T07:48:01.348Z,80
2022-12-24T07:49:01.344Z,100
2022-12-24T07:50:01.337Z,132
2022-12-24T07:51:01.326Z,128
2022-12-24T07:52:01.324Z,132
2022-12-24T07:53:01.293Z,120
2022-12-24T07:54:01.288Z,104
2022-12-24T07:55:01.271Z,80
2022-12-24T07:56:01.275Z,80
2022-12-24T07:57:01.251Z,128
2022-12-24T07:58:01.244Z,164
2022-12-24T07:59:01.231Z,180
2022-12-24T08:00:01.223Z,176
2022-12-24T08:01:01.208Z,132
2022-12-24T08:02:01.201Z,156
2022-12-24T08:03:01.191Z,140
2022-12-24T08:04:01.188Z,148
2022-12-24T08:05:01.168Z,160
2022-12-24T08:06:01.161Z,148
2022-12-24T08:07:01.145Z,168
2022-12-24T08:08:01.137Z,208
2022-12-24T08:09:01.137Z,264
2022-12-24T08:10:01.123Z,328
2022-12-24T08:11:01.109Z,344
2022-12-24T08:12:01.091Z,416
2022-12-24T08:13:01.085Z,476
2022-12-24T08:14:01.068Z,472
2022-12-24T08:15:01.065Z,444
2022-12-24T08:16:01.070Z,400
2022-12-24T08:17:01.039Z,380
2022-12-24T08:18:01.070Z,564
2022-12-24T08:19:01.022Z,600
2022-12-24T08:20:01.010Z,632
2022-12-24T08:21:01.014Z,592
2022-12-24T08:22:00.985Z,476
2022-12-24T08:23:00.980Z,396
2022-12-24T08:24:00.959Z,372
2022-12-24T08:25:00.958Z,356
2022-12-24T08:26:00.943Z,344
2022-12-24T08:27:00.931Z,332
2022-12-24T08:28:00.925Z,324
2022-12-24T08:29:00.935Z,336
2022-12-24T08:30:00.900Z,388
2022-12-24T08:31:00.888Z,420
2022-12-24T08:32:00.891Z,572
2022-12-24T08:33:00.867Z,588
2022-12-24T08:34:00.866Z,556
2022-12-24T08:35:00.862Z,464
2022-12-24T08:36:00.836Z,436
2022-12-24T08:37:00.832Z,352
2022-12-24T08:38:00.842Z,260
2022-12-24T08:39:00.891Z,228
2022-12-24T08:40:00.796Z,228
2022-12-24T08:41:00.811Z,240
2022-12-24T08:42:00.780Z,244
2022-12-24T08:43:00.766Z,244
2022-12-24T08:44:00.810Z,236
2022-12-24T08:45:00.755Z,232
2022-12-24T08:46:00.728Z,204
2022-12-24T08:47:00.729Z,200
2022-12-24T08:48:00.708Z,188
2022-12-24T08:49:00.695Z,240
2022-12-24T08:50:00.694Z,404
2022-12-24T08:51:00.672Z,516
2022-12-24T08:52:00.662Z,624
2022-12-24T08:53:00.653Z,520
2022-12-24T08:54:00.678Z,384
2022-12-24T08:55:00.637Z,304
2022-12-24T08:56:00.620Z,296
2022-12-24T08:57:00.641Z,348
2022-12-24T08:58:00.604Z,420
2022-12-24T08:59:00.586Z,392
2022-12-24T09:00:00.580Z,340
2022-12-24T09:01:00.591Z,384
2022-12-24T09:02:00.558Z,380
2022-12-24T09:03:00.562Z,344
2022-12-24T09:04:00.558Z,348
2022-12-24T09:05:00.592Z,248
2022-12-24T09:06:00.543Z,216
2022-12-24T09:07:00.512Z,188
2022-12-24T09:08:00.507Z,200
2022-12-24T09:09:00.547Z,228
2022-12-24T09:10:00.470Z,304
2022-12-24T09:11:00.466Z,364
2022-12-24T09:12:00.464Z,444
2022-12-24T09:13:00.441Z,568
2022-12-24T09:14:00.432Z,684
2022-12-24T09:15:00.420Z,688
2022-12-24T09:16:00.445Z,708
2022-12-24T09:17:00.391Z,692
2022-12-24T09:18:00.396Z,604
2022-12-24T09:19:00.385Z,576
2022-12-24T09:20:00.391Z,596
2022-12-24T09:21:00.354Z,536
2022-12-24T09:22:00.354Z,472
2022-12-24T09:23:00.330Z,520
2022-12-24T09:24:00.359Z,556
2022-12-24T09:25:00.311Z,636
2022-12-24T09:26:00.325Z,764
2022-12-24T09:27:00.317Z,688
2022-12-24T09:28:00.277Z,492
2022-12-24T09:29:00.271Z,388
2022-12-24T09:30:00.259Z,340
2022-12-24T09:31:00.357Z,268
2022-12-24T09:32:00.366Z,260
2022-12-24T09:33:00.318Z,304
2022-12-24T09:34:00.223Z,388
2022-12-24T09:35:00.208Z,320
2022-12-24T09:36:00.201Z,296
2022-12-24T09:37:00.187Z,292
2022-12-24T09:38:00.197Z,320
2022-12-24T09:39:00.182Z,340
2022-12-24T09:40:00.253Z,320
2022-12-24T09:41:00.139Z,332
2022-12-24T09:42:00.149Z,424
2022-12-24T09:43:00.131Z,428
2022-12-24T09:44:00.138Z,344
2022-12-24T09:45:00.112Z,312
2022-12-24T09:46:00.107Z,408
2022-12-24T09:47:00.093Z,412
2022-12-24T09:48:00.075Z,436
2022-12-24T09:49:00.070Z,492
2022-12-24T09:50:00.131Z,628
2022-12-24T09:51:00.045Z,732
2022-12-24T09:52:00.023Z,704
2022-12-24T09:53:00.031Z,872
2022-12-24T09:54:00.018Z,1080
2022-12-24T09:54:59.995Z,1228
2022-12-24T09:56:00.016Z,1004
2022-12-24T09:56:59.968Z,772
2022-12-24T09:57:59.958Z,644
2022-12-24T09:58:59.967Z,604
2022-12-24T09:59:59.982Z,720
2022-12-24T10:00:59.930Z,764
2022-12-24T10:01:59.925Z,936
2022-12-24T10:02:59.952Z,1344
2022-12-24T10:03:59.928Z,1148
2022-12-24T10:04:59.892Z,1204
2022-12-24T10:05:59.898Z,1336
2022-12-24T10:06:59.938Z,1204
2022-12-24T10:07:59.871Z,1140
2022-12-24T10:08:59.865Z,1016
2022-12-24T10:09:59.835Z,1020
2022-12-24T10:10:59.839Z,1252
2022-12-24T10:11:59.840Z,1152
2022-12-24T10:12:59.806Z,1020
2022-12-24T10:13:59.785Z,880
2022-12-24T10:14:59.783Z,728
2022-12-24T10:15:59.840Z,540
2022-12-24T10:16:59.756Z,816
2022-12-24T10:17:59.743Z,1108
2022-12-24T10:18:59.743Z,1812
2022-12-24T10:19:59.722Z,1620
2022-12-24T10:20:59.712Z,1336
2022-12-24T10:21:59.735Z,1172
2022-12-24T10:22:59.693Z,2124
2022-12-24T10:23:59.687Z,3136
2022-12-24T10:24:59.678Z,3216
2022-12-24T10:25:59.661Z,1844
2022-12-24T10:26:59.694Z,1128
2022-12-24T10:27:59.678Z,864
2022-12-24T10:28:59.636Z,792
2022-12-24T10:29:59.626Z,872
2022-12-24T10:30:59.617Z,820
2022-12-24T10:31:59.602Z,1008
2022-12-24T10:32:59.602Z,1368
2022-12-24T10:33:59.580Z,1796
2022-12-24T10:34:59.572Z,1592
2022-12-24T10:35:59.553Z,1572
2022-12-24T10:36:59.557Z,2040
2022-12-24T10:37:59.536Z,2900
2022-12-24T10:38:59.527Z,3360
2022-12-24T10:39:59.507Z,3044
2022-12-24T10:40:59.506Z,3304
2022-12-24T10:41:59.489Z,3052
2022-12-24T10:42:59.503Z,2844
2022-12-24T10:43:59.486Z,3604
2022-12-24T10:44:59.467Z,4732
2022-12-24T10:45:59.471Z,4976
2022-12-24T10:46:59.452Z,4592
2022-12-24T10:47:59.450Z,3440
2022-12-24T10:48:59.418Z,2640
2022-12-24T10:49:59.435Z,2624
2022-12-24T10:50:59.407Z,2600
2022-12-24T10:51:59.387Z,2948
2022-12-24T10:52:59.382Z,3148
2022-12-24T10:53:59.365Z,2972
2022-12-24T10:54:59.353Z,3012
2022-12-24T10:55:59.349Z,2876
2022-12-24T10:56:59.338Z,3144
2022-12-24T10:57:59.319Z,3400
2022-12-24T10:58:59.429Z,3472
2022-12-24T10:59:59.295Z,3620
2022-12-24T11:00:59.315Z,3484
2022-12-24T11:01:59.282Z,3764
2022-12-24T11:02:59.346Z,4548
2022-12-24T11:03:59.265Z,3940
2022-12-24T11:04:59.251Z,3448
2022-12-24T11:05:59.252Z,3368
2022-12-24T11:06:59.232Z,3120
2022-12-24T11:07:59.269Z,3496
2022-12-24T11:08:59.203Z,3584
2022-12-24T11:09:59.201Z,2948
2022-12-24T11:10:59.191Z,3064
2022-12-24T11:11:59.177Z,2912
2022-12-24T11:12:59.164Z,3304
2022-12-24T11:13:59.180Z,1864
2022-12-24T11:14:59.139Z,1264
2022-12-24T11:15:59.130Z,996
2022-12-24T11:16:59.123Z,872
2022-12-24T11:17:59.109Z,776
2022-12-24T11:18:59.112Z,780
2022-12-24T11:20:00.103Z,1044
2022-12-24T11:20:59.108Z,1008
2022-12-24T11:21:59.075Z,1196
2022-12-24T11:22:59.064Z,1088
2022-12-24T11:23:59.050Z,1272
2022-12-24T11:24:59.047Z,1248
2022-12-24T11:25:59.160Z,1080
2022-12-24T11:26:59.038Z,1400
2022-12-24T11:27:59.036Z,1732
2022-12-24T11:28:59.038Z,1708
2022-12-24T11:29:59.027Z,1536
2022-12-24T11:30:59.065Z,1356
2022-12-24T11:31:58.962Z,1624
2022-12-24T11:32:58.952Z,1904
2022-12-24T11:33:58.955Z,2324
2022-12-24T11:34:58.933Z,2232
2022-12-24T11:35:58.931Z,1924
2022-12-24T11:36:58.922Z,1532
2022-12-24T11:37:58.902Z,1896
2022-12-24T11:38:58.893Z,2360
2022-12-24T11:39:58.883Z,2812
2022-12-24T11:40:58.872Z,3720
2022-12-24T11:41:58.925Z,3012
2022-12-24T11:42:59.852Z,2868
2022-12-24T11:43:58.840Z,3528
2022-12-24T11:44:58.827Z,3436
2022-12-24T11:45:58.810Z,4140
2022-12-24T11:46:58.803Z,11252
2022-12-24T11:47:58.813Z,43712
2022-12-24T11:48:58.779Z,9352
2022-12-24T11:49:58.775Z,13644
2022-12-24T11:50:58.763Z,14624
2022-12-24T11:51:58.762Z,11736
2022-12-24T11:52:58.783Z,11148
2022-12-24T11:53:58.732Z,8080
2022-12-24T11:54:58.720Z,7720
2022-12-24T11:55:58.710Z,8424
2022-12-24T11:56:58.710Z,9104
2022-12-24T11:58:06.432Z,7568
2022-12-24T11:58:58.688Z,5364
2022-12-24T11:59:58.735Z,4788
2022-12-24T12:00:58.662Z,4528
2022-12-24T12:01:58.646Z,5020
2022-12-24T12:02:58.683Z,9520
2022-12-24T12:03:58.618Z,63968
2022-12-24T12:04:58.614Z,13212
2022-12-24T12:05:58.601Z,6876
2022-12-24T12:07:07.430Z,6824
2022-12-24T12:07:58.589Z,5524
2022-12-24T12:08:58.602Z,4200
2022-12-24T12:09:58.590Z,3116
2022-12-24T12:10:58.549Z,3248
2022-12-24T12:11:58.538Z,3164
2022-12-24T12:12:58.535Z,3380
2022-12-24T12:13:58.555Z,3164
2022-12-24T12:14:58.515Z,4172
2022-12-24T12:15:58.548Z,6032
2022-12-24T12:16:58.528Z,4584
2022-12-24T12:17:58.534Z,4416
2022-12-24T12:18:58.536Z,4732
2022-12-24T12:19:58.518Z,14096
2022-12-24T12:20:59.405Z,53920
2022-12-24T12:21:58.485Z,35168
2022-12-24T12:22:58.419Z,53664
2022-12-24T12:23:58.448Z,38464
2022-12-24T12:24:58.398Z,15188
2022-12-24T12:25:58.397Z,7104
2022-12-24T12:26:58.405Z,8952
2022-12-24T12:27:58.387Z,5360
2022-12-24T12:28:58.395Z,4968
2022-12-24T12:29:58.352Z,4152
2022-12-24T12:30:58.359Z,2640
2022-12-24T12:31:58.401Z,2184
2022-12-24T12:32:58.336Z,2452
2022-12-24T12:33:58.348Z,2472
2022-12-24T12:34:58.300Z,3464
2022-12-24T12:35:58.289Z,6900
2022-12-24T12:36:58.301Z,5288
2022-12-24T12:37:58.261Z,4436
2022-12-24T12:38:58.267Z,3204
2022-12-24T12:39:58.242Z,3624
2022-12-24T12:40:58.234Z,3140
2022-12-24T12:41:58.288Z,2708
2022-12-24T12:42:58.213Z,2200
2022-12-24T12:43:58.197Z,1816
2022-12-24T12:44:58.203Z,2084
2022-12-24T12:45:58.207Z,1432
2022-12-24T12:46:58.166Z,1232
2022-12-24T12:47:58.158Z,1088
2022-12-24T12:48:58.154Z,984
2022-12-24T12:49:58.196Z,1004
2022-12-24T12:50:58.129Z,1288
2022-12-24T12:51:58.115Z,1336
2022-12-24T12:52:58.103Z,1324
2022-12-24T12:53:58.104Z,1568
2022-12-24T12:54:58.089Z,2040
2022-12-24T12:55:58.076Z,2192
2022-12-24T12:56:58.069Z,2808
2022-12-24T12:57:58.053Z,3024
2022-12-24T12:58:58.069Z,2412
2022-12-24T12:59:58.622Z,1992
2022-12-24T13:00:58.154Z,2056
2022-12-24T13:01:58.073Z,2212
2022-12-24T13:02:58.027Z,1628
2022-12-24T13:03:57.982Z,1016
2022-12-24T13:04:58.033Z,984
2022-12-24T13:05:58.289Z,900
2022-12-24T13:06:57.953Z,816
2022-12-24T13:07:57.966Z,748
2022-12-24T13:08:57.936Z,696
2022-12-24T13:09:57.923Z,740
2022-12-24T13:10:57.913Z,904
2022-12-24T13:11:57.903Z,1032
2022-12-24T13:12:58.012Z,1112
2022-12-24T13:13:57.884Z,1152
2022-12-24T13:14:57.885Z,1432
2022-12-24T13:15:57.861Z,1428
2022-12-24T13:16:57.893Z,1420
2022-12-24T13:17:57.862Z,1220
2022-12-24T13:18:57.828Z,1192
2022-12-24T13:19:57.862Z,1308
2022-12-24T13:20:58.123Z,1512
2022-12-24T13:21:57.802Z,1728
2022-12-24T13:22:57.811Z,1528
2022-12-24T13:23:57.790Z,1472
2022-12-24T13:24:57.763Z,1500
2022-12-24T13:25:57.766Z,1144
2022-12-24T13:26:57.760Z,1024
2022-12-24T13:27:57.749Z,1268
2022-12-24T13:28:57.730Z,1464
2022-12-24T13:29:57.752Z,1720
2022-12-24T13:30:57.715Z,1848
2022-12-24T13:31:57.701Z,1508
2022-12-24T13:32:57.680Z,1580
2022-12-24T13:33:57.693Z,1688
2022-12-24T13:34:57.692Z,1592
2022-12-24T13:35:57.656Z,1692
2022-12-24T13:36:57.705Z,1660
2022-12-24T13:37:57.678Z,1624
2022-12-24T13:38:57.626Z,1540
2022-12-24T13:39:57.626Z,1444
2022-12-24T13:40:57.599Z,1328
2022-12-24T13:41:57.608Z,1420
2022-12-24T13:42:57.573Z,1640
2022-12-24T13:43:57.582Z,1980
2022-12-24T13:44:57.574Z,2164
2022-12-24T13:45:57.551Z,2308
2022-12-24T13:46:57.535Z,2452
2022-12-24T13:47:57.706Z,2532
2022-12-24T13:48:57.517Z,2324
2022-12-24T13:49:57.504Z,1936
2022-12-24T13:50:57.495Z,1568
2022-12-24T13:51:57.489Z,1548
2022-12-24T13:52:57.473Z,1556
2022-12-24T13:53:57.465Z,1812